Belford Roxo, Brazil
Current Conditions -  °F | °C
As of 11:00 AM on Monday 22 Dec 2014 (Local Time) from SBAF Reporting Station
Few Clouds Few Clouds  
Wind Chill: 97°   Ceiling: Unl
Heat Index: 100°   Visibility: 6mi
Dew Point: 66°   Wind: 14mph
Humidity: 37%   Direction: 320°NW
Pressure: 29.8"   Gusts: NA
Location:  22.75°S, 43.42°W
Report Text: SBAF 221300Z 32012KT 9999 FEW030 36/19 Q1009
Loading
Personal Weather Stations






























Interactive Weather Map New forecast layout! Learn more

10-Day Weather Forecast

Advertisements
Track Severe Weather on mobile